sensor_id;sensor_type;location;lat;lon;timestamp;P1;durP1;ratioP1;P2;durP2;ratioP2
17372;SDS011;8803;48.116;11.590;2023-03-01T00:00:40;18.03;;;14.87;;
17372;SDS011;8803;48.116;11.590;2023-03-01T00:02:56;18.83;;;15.23;;
17372;SDS011;8803;48.116;11.590;2023-03-01T00:05:00;21.63;;;14.40;;
17372;SDS011;8803;48.116;11.590;2023-03-01T00:07:14;18.97;;;15.00;;
17372;SDS011;8803;48.116;11.590;2023-03-01T00:09:18;20.10;;;15.40;;
17372;SDS011;8803;48.116;11.590;2023-03-01T00:11:23;17.73;;;15.37;;
17372;SDS011;8803;48.116;11.590;2023-03-01T00:13:36;18.67;;;13.77;;
17372;SDS011;8803;48.116;11.590;2023-03-01T00:15:40;21.83;;;14.50;;
17372;SDS011;8803;48.116;11.590;2023-03-01T00:17:44;18.07;;;13.67;;
17372;SDS011;8803;48.116;11.590;2023-03-01T00:19:48;16.80;;;14.00;;
17372;SDS011;8803;48.116;11.590;2023-03-01T00:21:52;21.60;;;15.43;;
17372;SDS011;8803;48.116;11.590;2023-03-01T00:24:05;21.20;;;14.80;;
17372;SDS011;8803;48.116;11.590;2023-03-01T00:26:10;17.77;;;13.90;;
17372;SDS011;8803;48.116;11.590;2023-03-01T00:28:15;18.23;;;14.03;;
17372;SDS011;8803;48.116;11.590;2023-03-01T00:30:19;18.67;;;14.33;;
17372;SDS011;8803;48.116;11.590;2023-03-01T00:32:23;19.63;;;14.00;;
17372;SDS011;8803;48.116;11.590;2023-03-01T00:34:37;18.07;;;14.70;;
17372;SDS011;8803;48.116;11.590;2023-03-01T00:36:41;17.40;;;13.80;;
17372;SDS011;8803;48.116;11.590;2023-03-01T00:38:45;19.60;;;14.20;;
17372;SDS011;8803;48.116;11.590;2023-03-01T00:40:49;17.97;;;14.87;;
17372;SDS011;8803;48.116;11.590;2023-03-01T00:43:02;17.93;;;13.57;;
17372;SDS011;8803;48.116;11.590;2023-03-01T00:45:08;19.00;;;14.53;;
17372;SDS011;8803;48.116;11.590;2023-03-01T00:47:21;18.97;;;14.23;;
17372;SDS011;8803;48.116;11.590;2023-03-01T00:49:25;18.23;;;14.33;;
17372;SDS011;8803;48.116;11.590;2023-03-01T00:51:29;18.13;;;14.33;;
17372;SDS011;8803;48.116;11.590;2023-03-01T00:53:42;17.60;;;14.63;;
17372;SDS011;8803;48.116;11.590;2023-03-01T00:55:46;21.13;;;15.20;;
17372;SDS011;8803;48.116;11.590;2023-03-01T00:57:50;16.77;;;14.43;;
17372;SDS011;8803;48.116;11.590;2023-03-01T00:59:54;19.10;;;14.67;;
17372;SDS011;8803;48.116;11.590;2023-03-01T01:02:06;19.57;;;15.47;;
17372;SDS011;8803;48.116;11.590;2023-03-01T01:04:11;18.77;;;15.17;;
17372;SDS011;8803;48.116;11.590;2023-03-01T01:06:24;19.07;;;14.13;;
17372;SDS011;8803;48.116;11.590;2023-03-01T01:08:29;18.47;;;14.30;;
17372;SDS011;8803;48.116;11.590;2023-03-01T01:10:33;20.07;;;14.57;;
17372;SDS011;8803;48.116;11.590;2023-03-01T01:12:37;17.87;;;14.63;;
17372;SDS011;8803;48.116;11.590;2023-03-01T01:14:50;18.53;;;15.17;;
17372;SDS011;8803;48.116;11.590;2023-03-01T01:16:54;19.90;;;14.50;;
17372;SDS011;8803;48.116;11.590;2023-03-01T01:19:07;18.63;;;14.07;;
17372;SDS011;8803;48.116;11.590;2023-03-01T01:21:12;16.07;;;13.70;;
17372;SDS011;8803;48.116;11.590;2023-03-01T01:23:28;20.73;;;14.83;;
17372;SDS011;8803;48.116;11.590;2023-03-01T01:25:34;17.90;;;13.53;;
17372;SDS011;8803;48.116;11.590;2023-03-01T01:27:38;18.67;;;15.07;;
17372;SDS011;8803;48.116;11.590;2023-03-01T01:29:42;17.87;;;14.63;;
17372;SDS011;8803;48.116;11.590;2023-03-01T01:31:55;17.77;;;14.60;;
17372;SDS011;8803;48.116;11.590;2023-03-01T01:33:59;16.67;;;14.03;;
17372;SDS011;8803;48.116;11.590;2023-03-01T01:36:12;17.77;;;14.90;;
17372;SDS011;8803;48.116;11.590;2023-03-01T01:38:16;18.27;;;14.47;;
17372;SDS011;8803;48.116;11.590;2023-03-01T01:40:20;18.67;;;14.73;;
17372;SDS011;8803;48.116;11.590;2023-03-01T01:42:24;18.33;;;14.37;;
17372;SDS011;8803;48.116;11.590;2023-03-01T01:44:36;16.80;;;13.67;;
17372;SDS011;8803;48.116;11.590;2023-03-01T01:46:41;21.17;;;15.30;;
17372;SDS011;8803;48.116;11.590;2023-03-01T01:48:55;22.47;;;15.70;;
17372;SDS011;8803;48.116;11.590;2023-03-01T01:51:02;19.23;;;14.43;;
17372;SDS011;8803;48.116;11.590;2023-03-01T01:53:15;17.77;;;15.10;;
17372;SDS011;8803;48.116;11.590;2023-03-01T01:55:22;19.33;;;14.20;;
17372;SDS011;8803;48.116;11.590;2023-03-01T01:57:31;18.30;;;14.67;;
17372;SDS011;8803;48.116;11.590;2023-03-01T01:59:36;18.03;;;14.67;;
17372;SDS011;8803;48.116;11.590;2023-03-01T02:01:49;19.03;;;15.47;;
17372;SDS011;8803;48.116;11.590;2023-03-01T02:03:53;16.50;;;13.20;;
17372;SDS011;8803;48.116;11.590;2023-03-01T02:06:07;16.73;;;13.70;;
17372;SDS011;8803;48.116;11.590;2023-03-01T02:08:16;17.23;;;14.37;;
17372;SDS011;8803;48.116;11.590;2023-03-01T02:10:22;17.50;;;14.87;;
17372;SDS011;8803;48.116;11.590;2023-03-01T02:12:27;16.90;;;14.03;;
17372;SDS011;8803;48.116;11.590;2023-03-01T02:14:41;17.37;;;14.43;;
17372;SDS011;8803;48.116;11.590;2023-03-01T02:16:45;18.57;;;14.63;;
17372;SDS011;8803;48.116;11.590;2023-03-01T02:18:49;20.33;;;15.30;;
17372;SDS011;8803;48.116;11.590;2023-03-01T02:21:01;19.10;;;14.47;;
17372;SDS011;8803;48.116;11.590;2023-03-01T02:23:16;19.60;;;15.93;;
17372;SDS011;8803;48.116;11.590;2023-03-01T02:25:23;20.80;;;15.37;;
17372;SDS011;8803;48.116;11.590;2023-03-01T02:27:38;19.17;;;15.43;;
17372;SDS011;8803;48.116;11.590;2023-03-01T02:29:52;19.20;;;15.60;;
17372;SDS011;8803;48.116;11.590;2023-03-01T02:31:56;20.63;;;15.37;;
17372;SDS011;8803;48.116;11.590;2023-03-01T02:34:13;20.50;;;15.47;;
17372;SDS011;8803;48.116;11.590;2023-03-01T02:36:19;17.53;;;14.57;;
17372;SDS011;8803;48.116;11.590;2023-03-01T02:38:24;21.23;;;15.73;;
17372;SDS011;8803;48.116;11.590;2023-03-01T02:40:29;17.57;;;14.90;;
17372;SDS011;8803;48.116;11.590;2023-03-01T02:42:36;19.13;;;15.53;;
17372;SDS011;8803;48.116;11.590;2023-03-01T02:44:43;19.77;;;15.63;;
17372;SDS011;8803;48.116;11.590;2023-03-01T02:46:56;20.07;;;15.43;;
17372;SDS011;8803;48.116;11.590;2023-03-01T02:49:01;21.53;;;14.47;;
17372;SDS011;8803;48.116;11.590;2023-03-01T02:51:26;20.70;;;15.00;;
17372;SDS011;8803;48.116;11.590;2023-03-01T02:53:47;19.60;;;15.20;;
17372;SDS011;8803;48.116;11.590;2023-03-01T02:55:53;18.33;;;14.43;;
17372;SDS011;8803;48.116;11.590;2023-03-01T02:57:57;18.97;;;15.13;;
17372;SDS011;8803;48.116;11.590;2023-03-01T03:00:03;18.97;;;14.47;;
17372;SDS011;8803;48.116;11.590;2023-03-01T03:02:18;19.90;;;15.47;;
17372;SDS011;8803;48.116;11.590;2023-03-01T03:04:25;21.13;;;15.60;;
17372;SDS011;8803;48.116;11.590;2023-03-01T03:06:38;18.00;;;15.03;;
17372;SDS011;8803;48.116;11.590;2023-03-01T03:08:42;17.13;;;14.17;;
17372;SDS011;8803;48.116;11.590;2023-03-01T03:10:55;17.40;;;14.60;;
17372;SDS011;8803;48.116;11.590;2023-03-01T03:15:10;17.30;;;15.00;;
17372;SDS011;8803;48.116;11.590;2023-03-01T03:17:14;21.07;;;14.63;;
17372;SDS011;8803;48.116;11.590;2023-03-01T03:19:18;18.60;;;15.00;;
17372;SDS011;8803;48.116;11.590;2023-03-01T03:21:32;20.13;;;15.27;;
17372;SDS011;8803;48.116;11.590;2023-03-01T03:23:37;18.13;;;13.83;;
17372;SDS011;8803;48.116;11.590;2023-03-01T03:25:53;19.87;;;15.90;;
17372;SDS011;8803;48.116;11.590;2023-03-01T03:27:57;20.70;;;15.43;;
17372;SDS011;8803;48.116;11.590;2023-03-01T03:30:11;20.27;;;14.97;;
17372;SDS011;8803;48.116;11.590;2023-03-01T03:32:16;18.33;;;13.73;;
17372;SDS011;8803;48.116;11.590;2023-03-01T03:34:29;18.70;;;14.90;;
17372;SDS011;8803;48.116;11.590;2023-03-01T03:36:33;18.17;;;14.40;;
17372;SDS011;8803;48.116;11.590;2023-03-01T03:38:37;18.97;;;14.30;;
17372;SDS011;8803;48.116;11.590;2023-03-01T03:40:42;19.83;;;13.60;;
17372;SDS011;8803;48.116;11.590;2023-03-01T03:42:47;18.40;;;14.07;;
17372;SDS011;8803;48.116;11.590;2023-03-01T03:44:59;18.00;;;14.20;;
17372;SDS011;8803;48.116;11.590;2023-03-01T03:47:03;18.27;;;15.07;;
17372;SDS011;8803;48.116;11.590;2023-03-01T03:49:07;19.50;;;14.90;;
17372;SDS011;8803;48.116;11.590;2023-03-01T03:51:11;20.80;;;15.13;;
17372;SDS011;8803;48.116;11.590;2023-03-01T03:53:25;18.13;;;14.33;;
17372;SDS011;8803;48.116;11.590;2023-03-01T03:55:30;18.87;;;15.10;;
17372;SDS011;8803;48.116;11.590;2023-03-01T03:57:47;16.47;;;13.90;;
17372;SDS011;8803;48.116;11.590;2023-03-01T03:59:52;18.00;;;15.03;;
17372;SDS011;8803;48.116;11.590;2023-03-01T04:01:56;18.30;;;14.83;;
17372;SDS011;8803;48.116;11.590;2023-03-01T04:04:08;20.57;;;15.97;;
17372;SDS011;8803;48.116;11.590;2023-03-01T04:06:12;17.97;;;14.43;;
17372;SDS011;8803;48.116;11.590;2023-03-01T04:08:17;19.47;;;15.67;;
17372;SDS011;8803;48.116;11.590;2023-03-01T04:10:22;17.90;;;14.53;;
17372;SDS011;8803;48.116;11.590;2023-03-01T04:12:26;22.20;;;15.77;;
17372;SDS011;8803;48.116;11.590;2023-03-01T04:14:29;21.20;;;16.27;;
17372;SDS011;8803;48.116;11.590;2023-03-01T04:16:42;20.50;;;15.17;;
17372;SDS011;8803;48.116;11.590;2023-03-01T04:18:46;16.93;;;14.43;;
17372;SDS011;8803;48.116;11.590;2023-03-01T04:20:50;20.10;;;15.60;;
17372;SDS011;8803;48.116;11.590;2023-03-01T04:22:59;20.57;;;15.37;;
17372;SDS011;8803;48.116;11.590;2023-03-01T04:25:12;20.93;;;16.23;;
17372;SDS011;8803;48.116;11.590;2023-03-01T04:27:16;18.90;;;15.00;;
17372;SDS011;8803;48.116;11.590;2023-03-01T04:29:20;20.17;;;16.00;;
17372;SDS011;8803;48.116;11.590;2023-03-01T04:31:24;19.93;;;14.47;;
17372;SDS011;8803;48.116;11.590;2023-03-01T04:33:37;19.47;;;16.07;;
17372;SDS011;8803;48.116;11.590;2023-03-01T04:35:41;22.63;;;16.13;;
17372;SDS011;8803;48.116;11.590;2023-03-01T04:37:45;17.70;;;15.20;;
17372;SDS011;8803;48.116;11.590;2023-03-01T04:39:49;24.60;;;17.23;;
17372;SDS011;8803;48.116;11.590;2023-03-01T04:41:53;22.80;;;16.17;;
17372;SDS011;8803;48.116;11.590;2023-03-01T04:44:05;19.80;;;15.57;;
17372;SDS011;8803;48.116;11.590;2023-03-01T04:46:10;18.23;;;15.23;;
17372;SDS011;8803;48.116;11.590;2023-03-01T04:48:16;20.83;;;15.97;;
17372;SDS011;8803;48.116;11.590;2023-03-01T04:50:20;18.67;;;15.83;;
17372;SDS011;8803;48.116;11.590;2023-03-01T04:52:32;19.73;;;15.47;;
17372;SDS011;8803;48.116;11.590;2023-03-01T04:54:36;18.73;;;15.20;;
17372;SDS011;8803;48.116;11.590;2023-03-01T04:56:52;19.40;;;15.37;;
17372;SDS011;8803;48.116;11.590;2023-03-01T04:58:56;19.43;;;15.70;;
17372;SDS011;8803;48.116;11.590;2023-03-01T05:01:01;20.13;;;16.03;;
17372;SDS011;8803;48.116;11.590;2023-03-01T05:03:11;20.67;;;14.87;;
17372;SDS011;8803;48.116;11.590;2023-03-01T05:05:24;18.67;;;14.90;;
17372;SDS011;8803;48.116;11.590;2023-03-01T05:07:30;18.60;;;15.00;;
17372;SDS011;8803;48.116;11.590;2023-03-01T05:09:34;18.03;;;15.27;;
17372;SDS011;8803;48.116;11.590;2023-03-01T05:11:39;18.93;;;15.17;;
17372;SDS011;8803;48.116;11.590;2023-03-01T05:13:52;20.53;;;15.60;;
17372;SDS011;8803;48.116;11.590;2023-03-01T05:15:57;19.23;;;16.07;;
17372;SDS011;8803;48.116;11.590;2023-03-01T05:18:02;20.17;;;16.07;;
17372;SDS011;8803;48.116;11.590;2023-03-01T05:20:10;23.87;;;15.00;;
17372;SDS011;8803;48.116;11.590;2023-03-01T05:22:23;20.50;;;16.27;;
17372;SDS011;8803;48.116;11.590;2023-03-01T05:24:27;20.67;;;15.33;;
17372;SDS011;8803;48.116;11.590;2023-03-01T05:26:40;17.37;;;14.23;;
17372;SDS011;8803;48.116;11.590;2023-03-01T05:28:44;18.87;;;15.10;;
17372;SDS011;8803;48.116;11.590;2023-03-01T05:30:48;17.27;;;14.33;;
17372;SDS011;8803;48.116;11.590;2023-03-01T05:32:52;18.50;;;14.60;;
17372;SDS011;8803;48.116;11.590;2023-03-01T05:35:06;21.60;;;16.37;;
17372;SDS011;8803;48.116;11.590;2023-03-01T05:37:11;18.97;;;15.33;;
17372;SDS011;8803;48.116;11.590;2023-03-01T05:39:15;20.17;;;15.50;;
17372;SDS011;8803;48.116;11.590;2023-03-01T05:41:30;20.57;;;15.70;;
17372;SDS011;8803;48.116;11.590;2023-03-01T05:43:33;20.63;;;15.30;;
17372;SDS011;8803;48.116;11.590;2023-03-01T05:45:46;19.87;;;16.10;;
17372;SDS011;8803;48.116;11.590;2023-03-01T05:47:50;21.63;;;16.07;;
17372;SDS011;8803;48.116;11.590;2023-03-01T05:49:55;20.13;;;16.07;;
17372;SDS011;8803;48.116;11.590;2023-03-01T05:51:59;19.73;;;16.07;;
17372;SDS011;8803;48.116;11.590;2023-03-01T05:54:12;18.27;;;14.97;;
17372;SDS011;8803;48.116;11.590;2023-03-01T05:56:17;21.53;;;16.00;;
17372;SDS011;8803;48.116;11.590;2023-03-01T05:58:32;19.13;;;15.70;;
17372;SDS011;8803;48.116;11.590;2023-03-01T06:00:36;20.73;;;15.73;;
17372;SDS011;8803;48.116;11.590;2023-03-01T06:02:40;20.30;;;14.83;;
17372;SDS011;8803;48.116;11.590;2023-03-01T06:04:53;21.07;;;16.63;;
17372;SDS011;8803;48.116;11.590;2023-03-01T06:06:57;18.97;;;15.30;;
17372;SDS011;8803;48.116;11.590;2023-03-01T06:09:01;20.47;;;16.30;;
17372;SDS011;8803;48.116;11.590;2023-03-01T06:11:04;21.27;;;16.77;;
17372;SDS011;8803;48.116;11.590;2023-03-01T06:13:17;20.53;;;15.63;;
17372;SDS011;8803;48.116;11.590;2023-03-01T06:15:21;21.50;;;16.53;;
17372;SDS011;8803;48.116;11.590;2023-03-01T06:17:26;21.13;;;16.00;;
17372;SDS011;8803;48.116;11.590;2023-03-01T06:19:40;20.10;;;15.67;;
17372;SDS011;8803;48.116;11.590;2023-03-01T06:21:44;21.87;;;15.93;;
17372;SDS011;8803;48.116;11.590;2023-03-01T06:23:57;19.13;;;15.90;;
17372;SDS011;8803;48.116;11.590;2023-03-01T06:26:04;20.87;;;16.33;;
17372;SDS011;8803;48.116;11.590;2023-03-01T06:28:09;20.03;;;15.73;;
17372;SDS011;8803;48.116;11.590;2023-03-01T06:30:13;22.47;;;16.50;;
17372;SDS011;8803;48.116;11.590;2023-03-01T06:32:17;20.47;;;15.40;;
17372;SDS011;8803;48.116;11.590;2023-03-01T06:34:30;20.47;;;15.47;;
17372;SDS011;8803;48.116;11.590;2023-03-01T06:36:34;20.70;;;16.50;;
17372;SDS011;8803;48.116;11.590;2023-03-01T06:38:38;24.70;;;17.23;;
17372;SDS011;8803;48.116;11.590;2023-03-01T06:40:42;21.37;;;15.90;;
17372;SDS011;8803;48.116;11.590;2023-03-01T06:42:47;21.27;;;16.00;;
17372;SDS011;8803;48.116;11.590;2023-03-01T06:45:00;22.97;;;17.67;;
17372;SDS011;8803;48.116;11.590;2023-03-01T06:47:05;20.57;;;16.50;;
17372;SDS011;8803;48.116;11.590;2023-03-01T06:49:09;21.70;;;16.27;;
17372;SDS011;8803;48.116;11.590;2023-03-01T06:53:24;23.63;;;17.00;;
17372;SDS011;8803;48.116;11.590;2023-03-01T06:55:28;23.37;;;16.97;;
17372;SDS011;8803;48.116;11.590;2023-03-01T06:57:32;23.93;;;17.17;;
17372;SDS011;8803;48.116;11.590;2023-03-01T06:59:36;22.07;;;16.67;;
17372;SDS011;8803;48.116;11.590;2023-03-01T07:01:49;19.80;;;15.73;;
17372;SDS011;8803;48.116;11.590;2023-03-01T07:03:52;24.47;;;16.87;;
17372;SDS011;8803;48.116;11.590;2023-03-01T07:06:05;21.30;;;16.43;;
17372;SDS011;8803;48.116;11.590;2023-03-01T07:08:09;21.90;;;17.07;;
17372;SDS011;8803;48.116;11.590;2023-03-01T07:10:22;24.90;;;17.70;;
17372;SDS011;8803;48.116;11.590;2023-03-01T07:12:26;23.07;;;16.67;;
17372;SDS011;8803;48.116;11.590;2023-03-01T07:14:39;20.27;;;16.17;;
17372;SDS011;8803;48.116;11.590;2023-03-01T07:16:42;22.20;;;17.33;;
17372;SDS011;8803;48.116;11.590;2023-03-01T07:18:46;23.57;;;17.37;;
17372;SDS011;8803;48.116;11.590;2023-03-01T07:20:50;24.87;;;16.93;;
17372;SDS011;8803;48.116;11.590;2023-03-01T07:23:03;23.37;;;17.67;;
17372;SDS011;8803;48.116;11.590;2023-03-01T07:25:09;23.43;;;16.37;;
17372;SDS011;8803;48.116;11.590;2023-03-01T07:27:22;21.87;;;16.23;;
17372;SDS011;8803;48.116;11.590;2023-03-01T07:29:26;20.97;;;16.43;;
17372;SDS011;8803;48.116;11.590;2023-03-01T07:31:39;21.67;;;16.00;;
17372;SDS011;8803;48.116;11.590;2023-03-01T07:33:42;21.57;;;17.07;;
17372;SDS011;8803;48.116;11.590;2023-03-01T07:35:58;25.73;;;17.60;;
17372;SDS011;8803;48.116;11.590;2023-03-01T07:38:04;27.10;;;17.77;;
17372;SDS011;8803;48.116;11.590;2023-03-01T07:40:09;22.10;;;16.57;;
17372;SDS011;8803;48.116;11.590;2023-03-01T07:42:14;23.13;;;17.07;;
17372;SDS011;8803;48.116;11.590;2023-03-01T07:44:30;21.37;;;17.03;;
17372;SDS011;8803;48.116;11.590;2023-03-01T07:46:34;21.67;;;17.10;;
17372;SDS011;8803;48.116;11.590;2023-03-01T07:48:47;21.93;;;16.00;;
17372;SDS011;8803;48.116;11.590;2023-03-01T07:50:51;20.70;;;16.20;;
17372;SDS011;8803;48.116;11.590;2023-03-01T07:52:54;24.23;;;17.10;;
17372;SDS011;8803;48.116;11.590;2023-03-01T07:55:08;24.77;;;17.50;;
17372;SDS011;8803;48.116;11.590;2023-03-01T07:57:12;21.93;;;16.13;;
17372;SDS011;8803;48.116;11.590;2023-03-01T07:59:16;26.37;;;18.93;;
17372;SDS011;8803;48.116;11.590;2023-03-01T08:01:20;21.87;;;16.60;;
17372;SDS011;8803;48.116;11.590;2023-03-01T08:03:33;24.00;;;16.47;;
17372;SDS011;8803;48.116;11.590;2023-03-01T08:05:38;23.03;;;18.07;;
17372;SDS011;8803;48.116;11.590;2023-03-01T08:07:50;24.10;;;17.27;;
17372;SDS011;8803;48.116;11.590;2023-03-01T08:09:55;22.77;;;17.57;;
17372;SDS011;8803;48.116;11.590;2023-03-01T08:14:10;25.20;;;17.97;;
17372;SDS011;8803;48.116;11.590;2023-03-01T08:16:14;22.67;;;17.33;;
17372;SDS011;8803;48.116;11.590;2023-03-01T08:18:19;22.77;;;17.80;;
17372;SDS011;8803;48.116;11.590;2023-03-01T08:20:31;24.73;;;17.97;;
17372;SDS011;8803;48.116;11.590;2023-03-01T08:22:35;25.30;;;17.93;;
17372;SDS011;8803;48.116;11.590;2023-03-01T08:24:50;23.97;;;17.00;;
17372;SDS011;8803;48.116;11.590;2023-03-01T08:26:53;23.17;;;17.70;;
17372;SDS011;8803;48.116;11.590;2023-03-01T08:28:57;26.00;;;18.93;;
17372;SDS011;8803;48.116;11.590;2023-03-01T08:31:02;26.53;;;18.63;;
17372;SDS011;8803;48.116;11.590;2023-03-01T08:33:07;22.57;;;17.43;;
17372;SDS011;8803;48.116;11.590;2023-03-01T08:35:20;26.40;;;17.23;;
17372;SDS011;8803;48.116;11.590;2023-03-01T08:37:24;23.67;;;17.97;;
17372;SDS011;8803;48.116;11.590;2023-03-01T08:39:37;24.53;;;17.43;;
17372;SDS011;8803;48.116;11.590;2023-03-01T08:41:41;24.97;;;18.00;;
17372;SDS011;8803;48.116;11.590;2023-03-01T08:43:56;24.77;;;18.47;;
17372;SDS011;8803;48.116;11.590;2023-03-01T08:46:00;28.17;;;19.30;;
17372;SDS011;8803;48.116;11.590;2023-03-01T08:48:04;25.03;;;17.80;;
17372;SDS011;8803;48.116;11.590;2023-03-01T08:50:09;22.90;;;16.90;;
17372;SDS011;8803;48.116;11.590;2023-03-01T08:52:26;22.50;;;16.90;;
17372;SDS011;8803;48.116;11.590;2023-03-01T08:54:31;23.57;;;17.47;;
17372;SDS011;8803;48.116;11.590;2023-03-01T08:56:45;22.90;;;17.67;;
17372;SDS011;8803;48.116;11.590;2023-03-01T08:58:49;23.07;;;16.97;;
17372;SDS011;8803;48.116;11.590;2023-03-01T09:00:53;23.57;;;16.57;;
17372;SDS011;8803;48.116;11.590;2023-03-01T09:03:05;25.93;;;18.77;;
17372;SDS011;8803;48.116;11.590;2023-03-01T09:05:10;22.03;;;16.87;;
17372;SDS011;8803;48.116;11.590;2023-03-01T09:07:22;26.43;;;18.87;;
17372;SDS011;8803;48.116;11.590;2023-03-01T09:09:28;24.03;;;17.60;;
17372;SDS011;8803;48.116;11.590;2023-03-01T09:11:41;21.50;;;17.20;;
17372;SDS011;8803;48.116;11.590;2023-03-01T09:13:47;21.03;;;17.07;;
17372;SDS011;8803;48.116;11.590;2023-03-01T09:16:01;22.07;;;17.23;;
17372;SDS011;8803;48.116;11.590;2023-03-01T09:18:07;24.80;;;18.60;;
17372;SDS011;8803;48.116;11.590;2023-03-01T09:20:20;21.47;;;17.20;;
17372;SDS011;8803;48.116;11.590;2023-03-01T09:22:24;23.53;;;17.70;;
17372;SDS011;8803;48.116;11.590;2023-03-01T09:24:36;22.70;;;17.90;;
17372;SDS011;8803;48.116;11.590;2023-03-01T09:26:41;26.37;;;17.93;;
17372;SDS011;8803;48.116;11.590;2023-03-01T09:28:47;23.27;;;18.47;;
17372;SDS011;8803;48.116;11.590;2023-03-01T09:30:53;25.70;;;19.07;;
17372;SDS011;8803;48.116;11.590;2023-03-01T09:32:58;24.27;;;18.07;;
17372;SDS011;8803;48.116;11.590;2023-03-01T09:35:11;24.27;;;19.23;;
17372;SDS011;8803;48.116;11.590;2023-03-01T09:37:15;22.27;;;17.93;;
17372;SDS011;8803;48.116;11.590;2023-03-01T09:39:19;24.60;;;18.80;;
17372;SDS011;8803;48.116;11.590;2023-03-01T09:41:26;21.93;;;18.30;;
17372;SDS011;8803;48.116;11.590;2023-03-01T09:43:52;24.10;;;18.30;;
17372;SDS011;8803;48.116;11.590;2023-03-01T09:46:08;20.90;;;16.57;;
17372;SDS011;8803;48.116;11.590;2023-03-01T09:48:16;25.27;;;18.57;;
17372;SDS011;8803;48.116;11.590;2023-03-01T09:50:23;25.80;;;18.17;;
17372;SDS011;8803;48.116;11.590;2023-03-01T09:52:39;23.17;;;16.70;;
17372;SDS011;8803;48.116;11.590;2023-03-01T09:56:59;23.53;;;17.77;;
17372;SDS011;8803;48.116;11.590;2023-03-01T09:59:14;23.37;;;17.77;;
17372;SDS011;8803;48.116;11.590;2023-03-01T10:01:25;20.80;;;16.47;;
17372;SDS011;8803;48.116;11.590;2023-03-01T10:03:42;24.60;;;18.83;;
17372;SDS011;8803;48.116;11.590;2023-03-01T10:05:50;22.57;;;17.10;;
17372;SDS011;8803;48.116;11.590;2023-03-01T10:10:15;27.20;;;19.00;;
17372;SDS011;8803;48.116;11.590;2023-03-01T10:12:22;24.03;;;17.97;;
17372;SDS011;8803;48.116;11.590;2023-03-01T10:14:29;24.97;;;18.27;;
17372;SDS011;8803;48.116;11.590;2023-03-01T10:16:38;25.00;;;18.53;;
17372;SDS011;8803;48.116;11.590;2023-03-01T10:18:44;23.10;;;17.47;;
17372;SDS011;8803;48.116;11.590;2023-03-01T10:20:52;23.00;;;17.40;;
17372;SDS011;8803;48.116;11.590;2023-03-01T10:23:04;22.10;;;17.13;;
17372;SDS011;8803;48.116;11.590;2023-03-01T10:25:12;22.50;;;17.13;;
17372;SDS011;8803;48.116;11.590;2023-03-01T10:27:29;24.13;;;18.07;;
17372;SDS011;8803;48.116;11.590;2023-03-01T10:29:39;24.33;;;18.47;;
17372;SDS011;8803;48.116;11.590;2023-03-01T10:31:45;25.23;;;18.83;;
17372;SDS011;8803;48.116;11.590;2023-03-01T10:33:59;25.50;;;19.37;;
17372;SDS011;8803;48.116;11.590;2023-03-01T10:36:04;26.83;;;19.53;;
17372;SDS011;8803;48.116;11.590;2023-03-01T10:38:09;21.33;;;17.80;;
17372;SDS011;8803;48.116;11.590;2023-03-01T10:40:15;28.27;;;20.87;;
17372;SDS011;8803;48.116;11.590;2023-03-01T10:42:29;24.73;;;19.50;;
17372;SDS011;8803;48.116;11.590;2023-03-01T10:44:38;25.40;;;19.23;;
17372;SDS011;8803;48.116;11.590;2023-03-01T10:46:59;24.90;;;18.20;;
17372;SDS011;8803;48.116;11.590;2023-03-01T10:49:13;23.17;;;17.40;;
17372;SDS011;8803;48.116;11.590;2023-03-01T10:51:19;25.43;;;19.20;;
17372;SDS011;8803;48.116;11.590;2023-03-01T10:53:25;25.17;;;19.70;;
17372;SDS011;8803;48.116;11.590;2023-03-01T10:55:39;25.03;;;19.33;;
17372;SDS011;8803;48.116;11.590;2023-03-01T10:57:43;26.53;;;19.63;;
17372;SDS011;8803;48.116;11.590;2023-03-01T10:59:47;24.00;;;19.23;;
17372;SDS011;8803;48.116;11.590;2023-03-01T11:02:02;24.30;;;18.10;;
17372;SDS011;8803;48.116;11.590;2023-03-01T11:04:13;24.27;;;18.43;;
17372;SDS011;8803;48.116;11.590;2023-03-01T11:06:25;21.33;;;18.67;;
17372;SDS011;8803;48.116;11.590;2023-03-01T11:08:31;25.03;;;20.00;;
17372;SDS011;8803;48.116;11.590;2023-03-01T11:10:39;25.77;;;19.67;;
17372;SDS011;8803;48.116;11.590;2023-03-01T11:12:43;26.17;;;19.40;;
17372;SDS011;8803;48.116;11.590;2023-03-01T11:14:47;23.27;;;19.13;;
17372;SDS011;8803;48.116;11.590;2023-03-01T11:17:05;25.40;;;18.93;;
17372;SDS011;8803;48.116;11.590;2023-03-01T11:19:20;24.03;;;20.13;;
17372;SDS011;8803;48.116;11.590;2023-03-01T11:21:33;24.33;;;18.87;;
17372;SDS011;8803;48.116;11.590;2023-03-01T11:23:39;25.67;;;19.10;;
17372;SDS011;8803;48.116;11.590;2023-03-01T11:25:53;25.50;;;19.77;;
17372;SDS011;8803;48.116;11.590;2023-03-01T11:27:58;23.60;;;18.63;;
17372;SDS011;8803;48.116;11.590;2023-03-01T11:30:05;24.63;;;19.57;;
17372;SDS011;8803;48.116;11.590;2023-03-01T11:32:11;22.23;;;17.80;;
17372;SDS011;8803;48.116;11.590;2023-03-01T11:34:30;28.47;;;20.60;;
17372;SDS011;8803;48.116;11.590;2023-03-01T11:36:41;26.47;;;20.10;;
17372;SDS011;8803;48.116;11.590;2023-03-01T11:38:48;28.27;;;20.27;;
17372;SDS011;8803;48.116;11.590;2023-03-01T11:40:54;27.23;;;20.57;;
17372;SDS011;8803;48.116;11.590;2023-03-01T11:43:02;25.13;;;19.57;;
17372;SDS011;8803;48.116;11.590;2023-03-01T11:45:19;24.97;;;19.73;;
17372;SDS011;8803;48.116;11.590;2023-03-01T11:47:35;23.77;;;19.20;;
17372;SDS011;8803;48.116;11.590;2023-03-01T11:49:51;23.90;;;18.77;;
17372;SDS011;8803;48.116;11.590;2023-03-01T11:52:02;24.10;;;19.57;;
17372;SDS011;8803;48.116;11.590;2023-03-01T11:54:24;30.33;;;20.47;;
17372;SDS011;8803;48.116;11.590;2023-03-01T11:56:32;23.87;;;19.73;;
17372;SDS011;8803;48.116;11.590;2023-03-01T11:58:42;25.20;;;20.00;;
17372;SDS011;8803;48.116;11.590;2023-03-01T12:00:55;25.63;;;19.20;;
17372;SDS011;8803;48.116;11.590;2023-03-01T12:03:28;26.10;;;19.93;;
17372;SDS011;8803;48.116;11.590;2023-03-01T12:05:47;22.07;;;18.67;;
17372;SDS011;8803;48.116;11.590;2023-03-01T12:08:26;26.23;;;19.43;;
17372;SDS011;8803;48.116;11.590;2023-03-01T12:10:32;23.30;;;18.77;;
17372;SDS011;8803;48.116;11.590;2023-03-01T12:12:43;25.70;;;20.27;;
17372;SDS011;8803;48.116;11.590;2023-03-01T12:15:06;27.83;;;20.70;;
17372;SDS011;8803;48.116;11.590;2023-03-01T12:20:17;24.20;;;19.57;;
17372;SDS011;8803;48.116;11.590;2023-03-01T12:22:28;27.90;;;19.00;;
17372;SDS011;8803;48.116;11.590;2023-03-01T12:27:24;22.47;;;18.37;;
17372;SDS011;8803;48.116;11.590;2023-03-01T12:29:36;24.50;;;19.07;;
17372;SDS011;8803;48.116;11.590;2023-03-01T12:32:01;22.67;;;18.63;;
17372;SDS011;8803;48.116;11.590;2023-03-01T12:36:35;22.57;;;18.47;;
17372;SDS011;8803;48.116;11.590;2023-03-01T12:38:48;24.90;;;19.33;;
17372;SDS011;8803;48.116;11.590;2023-03-01T12:43:32;25.20;;;20.03;;
17372;SDS011;8803;48.116;11.590;2023-03-01T12:45:44;27.03;;;19.93;;
17372;SDS011;8803;48.116;11.590;2023-03-01T12:48:05;30.23;;;20.37;;
17372;SDS011;8803;48.116;11.590;2023-03-01T12:50:14;25.13;;;19.17;;
17372;SDS011;8803;48.116;11.590;2023-03-01T12:52:32;25.37;;;18.40;;